sensor_id;sensor_type;location;lat;lon;timestamp;P1;durP1;ratioP1;P2;durP2;ratioP2
27704;SDS011;15109;50.992;6.918;2022-07-22T00:02:06;7.47;;;1.48;;
27704;SDS011;15109;50.992;6.918;2022-07-22T00:05:27;3.47;;;2.00;;
27704;SDS011;15109;50.992;6.918;2022-07-22T00:08:48;3.47;;;1.70;;
27704;SDS011;15109;50.992;6.918;2022-07-22T00:12:10;2.30;;;1.42;;
27704;SDS011;15109;50.992;6.918;2022-07-22T00:15:31;1.73;;;1.08;;
27704;SDS011;15109;50.992;6.918;2022-07-22T00:18:52;2.92;;;1.38;;
27704;SDS011;15109;50.992;6.918;2022-07-22T00:22:13;1.40;;;1.02;;
27704;SDS011;15109;50.992;6.918;2022-07-22T00:25:34;2.40;;;1.15;;
27704;SDS011;15109;50.992;6.918;2022-07-22T00:28:55;1.85;;;1.00;;
27704;SDS011;15109;50.992;6.918;2022-07-22T00:32:17;2.28;;;1.42;;
27704;SDS011;15109;50.992;6.918;2022-07-22T00:35:38;1.75;;;0.98;;
27704;SDS011;15109;50.992;6.918;2022-07-22T00:38:59;3.20;;;1.65;;
27704;SDS011;15109;50.992;6.918;2022-07-22T00:42:20;3.88;;;1.52;;
27704;SDS011;15109;50.992;6.918;2022-07-22T00:45:42;3.92;;;1.38;;
27704;SDS011;15109;50.992;6.918;2022-07-22T00:49:03;3.95;;;1.50;;
27704;SDS011;15109;50.992;6.918;2022-07-22T00:52:26;2.33;;;1.20;;
27704;SDS011;15109;50.992;6.918;2022-07-22T00:55:47;2.00;;;1.10;;
27704;SDS011;15109;50.992;6.918;2022-07-22T00:59:10;5.93;;;1.13;;
27704;SDS011;15109;50.992;6.918;2022-07-22T01:02:32;11.00;;;1.35;;
27704;SDS011;15109;50.992;6.918;2022-07-22T01:05:53;2.63;;;1.20;;
27704;SDS011;15109;50.992;6.918;2022-07-22T01:09:14;2.22;;;1.20;;
27704;SDS011;15109;50.992;6.918;2022-07-22T01:12:35;2.33;;;1.23;;
27704;SDS011;15109;50.992;6.918;2022-07-22T01:15:57;2.55;;;1.33;;
27704;SDS011;15109;50.992;6.918;2022-07-22T01:19:18;1.83;;;1.15;;
27704;SDS011;15109;50.992;6.918;2022-07-22T01:22:39;5.05;;;2.22;;
27704;SDS011;15109;50.992;6.918;2022-07-22T01:26:00;4.25;;;1.83;;
27704;SDS011;15109;50.992;6.918;2022-07-22T01:29:22;6.75;;;1.77;;
27704;SDS011;15109;50.992;6.918;2022-07-22T01:32:43;2.00;;;1.17;;
27704;SDS011;15109;50.992;6.918;2022-07-22T01:36:05;2.35;;;1.30;;
27704;SDS011;15109;50.992;6.918;2022-07-22T01:39:27;1.58;;;1.10;;
27704;SDS011;15109;50.992;6.918;2022-07-22T01:42:55;2.83;;;1.48;;
27704;SDS011;15109;50.992;6.918;2022-07-22T01:46:24;2.17;;;1.20;;
27704;SDS011;15109;50.992;6.918;2022-07-22T01:49:45;7.57;;;2.03;;
27704;SDS011;15109;50.992;6.918;2022-07-22T01:53:07;4.63;;;1.98;;
27704;SDS011;15109;50.992;6.918;2022-07-22T01:56:28;2.53;;;1.40;;
27704;SDS011;15109;50.992;6.918;2022-07-22T01:59:49;1.90;;;1.27;;
27704;SDS011;15109;50.992;6.918;2022-07-22T02:03:10;3.95;;;1.38;;
27704;SDS011;15109;50.992;6.918;2022-07-22T02:06:32;3.00;;;1.65;;
27704;SDS011;15109;50.992;6.918;2022-07-22T02:09:53;1.67;;;1.17;;
27704;SDS011;15109;50.992;6.918;2022-07-22T02:13:15;3.75;;;1.92;;
27704;SDS011;15109;50.992;6.918;2022-07-22T02:16:36;3.13;;;1.80;;
27704;SDS011;15109;50.992;6.918;2022-07-22T02:20:00;9.35;;;1.95;;
27704;SDS011;15109;50.992;6.918;2022-07-22T02:23:22;2.42;;;1.65;;
27704;SDS011;15109;50.992;6.918;2022-07-22T02:26:44;1.80;;;0.90;;
27704;SDS011;15109;50.992;6.918;2022-07-22T02:30:07;3.38;;;1.52;;
27704;SDS011;15109;50.992;6.918;2022-07-22T02:33:30;4.90;;;1.30;;
27704;SDS011;15109;50.992;6.918;2022-07-22T02:36:52;5.20;;;1.60;;
27704;SDS011;15109;50.992;6.918;2022-07-22T02:40:13;4.97;;;2.05;;
27704;SDS011;15109;50.992;6.918;2022-07-22T02:43:35;3.80;;;2.03;;
27704;SDS011;15109;50.992;6.918;2022-07-22T02:46:57;4.05;;;2.00;;
27704;SDS011;15109;50.992;6.918;2022-07-22T02:50:24;9.63;;;1.63;;
27704;SDS011;15109;50.992;6.918;2022-07-22T02:53:46;4.22;;;2.10;;
27704;SDS011;15109;50.992;6.918;2022-07-22T02:57:07;4.70;;;2.42;;
27704;SDS011;15109;50.992;6.918;2022-07-22T03:00:29;7.70;;;1.67;;
27704;SDS011;15109;50.992;6.918;2022-07-22T03:03:50;4.03;;;1.80;;
27704;SDS011;15109;50.992;6.918;2022-07-22T03:07:11;1.63;;;1.30;;
27704;SDS011;15109;50.992;6.918;2022-07-22T03:10:33;3.70;;;1.70;;
27704;SDS011;15109;50.992;6.918;2022-07-22T03:13:54;2.75;;;1.65;;
27704;SDS011;15109;50.992;6.918;2022-07-22T03:17:15;6.22;;;1.80;;
27704;SDS011;15109;50.992;6.918;2022-07-22T03:20:36;6.32;;;2.63;;
27704;SDS011;15109;50.992;6.918;2022-07-22T03:23:58;3.15;;;1.75;;
27704;SDS011;15109;50.992;6.918;2022-07-22T03:27:19;5.28;;;1.92;;
27704;SDS011;15109;50.992;6.918;2022-07-22T03:30:40;2.17;;;1.30;;
27704;SDS011;15109;50.992;6.918;2022-07-22T03:34:01;2.40;;;1.25;;
27704;SDS011;15109;50.992;6.918;2022-07-22T03:37:27;3.40;;;2.13;;
27704;SDS011;15109;50.992;6.918;2022-07-22T03:40:48;8.23;;;2.28;;
27704;SDS011;15109;50.992;6.918;2022-07-22T03:44:09;3.33;;;1.92;;
27704;SDS011;15109;50.992;6.918;2022-07-22T03:47:30;7.00;;;2.35;;
27704;SDS011;15109;50.992;6.918;2022-07-22T03:50:52;6.88;;;2.10;;
27704;SDS011;15109;50.992;6.918;2022-07-22T03:54:13;3.50;;;2.03;;
27704;SDS011;15109;50.992;6.918;2022-07-22T03:57:36;11.13;;;2.40;;
27704;SDS011;15109;50.992;6.918;2022-07-22T04:01:11;2.85;;;1.70;;
27704;SDS011;15109;50.992;6.918;2022-07-22T04:04:35;3.95;;;2.15;;
27704;SDS011;15109;50.992;6.918;2022-07-22T04:07:56;5.65;;;2.00;;
27704;SDS011;15109;50.992;6.918;2022-07-22T04:11:17;4.68;;;2.13;;
27704;SDS011;15109;50.992;6.918;2022-07-22T04:14:38;3.35;;;1.80;;
27704;SDS011;15109;50.992;6.918;2022-07-22T04:18:00;5.25;;;2.42;;
27704;SDS011;15109;50.992;6.918;2022-07-22T04:21:21;3.22;;;1.80;;
27704;SDS011;15109;50.992;6.918;2022-07-22T04:24:50;2.58;;;1.30;;
27704;SDS011;15109;50.992;6.918;2022-07-22T04:28:11;2.05;;;1.35;;
27704;SDS011;15109;50.992;6.918;2022-07-22T04:31:35;4.03;;;1.73;;
27704;SDS011;15109;50.992;6.918;2022-07-22T04:35:04;1.55;;;1.15;;
27704;SDS011;15109;50.992;6.918;2022-07-22T04:38:26;2.83;;;1.33;;
27704;SDS011;15109;50.992;6.918;2022-07-22T04:45:15;2.78;;;1.80;;
27704;SDS011;15109;50.992;6.918;2022-07-22T04:48:36;3.72;;;1.35;;
27704;SDS011;15109;50.992;6.918;2022-07-22T04:51:57;3.10;;;1.90;;
27704;SDS011;15109;50.992;6.918;2022-07-22T04:55:29;2.25;;;1.50;;
27704;SDS011;15109;50.992;6.918;2022-07-22T04:58:50;2.28;;;1.38;;
27704;SDS011;15109;50.992;6.918;2022-07-22T05:02:13;2.80;;;1.80;;
27704;SDS011;15109;50.992;6.918;2022-07-22T05:05:37;3.50;;;2.15;;
27704;SDS011;15109;50.992;6.918;2022-07-22T05:08:58;5.05;;;1.95;;
27704;SDS011;15109;50.992;6.918;2022-07-22T05:12:22;3.50;;;1.73;;
27704;SDS011;15109;50.992;6.918;2022-07-22T05:15:43;3.70;;;1.90;;
27704;SDS011;15109;50.992;6.918;2022-07-22T05:19:05;2.33;;;1.45;;
27704;SDS011;15109;50.992;6.918;2022-07-22T05:22:28;3.63;;;2.22;;
27704;SDS011;15109;50.992;6.918;2022-07-22T05:25:49;3.88;;;2.30;;
27704;SDS011;15109;50.992;6.918;2022-07-22T05:29:10;2.88;;;1.58;;
27704;SDS011;15109;50.992;6.918;2022-07-22T05:32:31;3.15;;;1.95;;
27704;SDS011;15109;50.992;6.918;2022-07-22T05:35:55;6.03;;;2.92;;
27704;SDS011;15109;50.992;6.918;2022-07-22T05:39:18;5.40;;;2.70;;
27704;SDS011;15109;50.992;6.918;2022-07-22T05:42:39;6.97;;;2.88;;
27704;SDS011;15109;50.992;6.918;2022-07-22T05:46:00;5.70;;;2.85;;
27704;SDS011;15109;50.992;6.918;2022-07-22T05:49:22;5.72;;;2.72;;
27704;SDS011;15109;50.992;6.918;2022-07-22T05:52:53;5.80;;;3.25;;
27704;SDS011;15109;50.992;6.918;2022-07-22T05:56:16;5.53;;;3.53;;
27704;SDS011;15109;50.992;6.918;2022-07-22T05:59:37;6.13;;;3.20;;
27704;SDS011;15109;50.992;6.918;2022-07-22T06:02:58;4.57;;;2.47;;
27704;SDS011;15109;50.992;6.918;2022-07-22T06:06:19;4.68;;;2.50;;
27704;SDS011;15109;50.992;6.918;2022-07-22T06:09:41;4.97;;;2.92;;
27704;SDS011;15109;50.992;6.918;2022-07-22T06:13:04;2.78;;;1.60;;
27704;SDS011;15109;50.992;6.918;2022-07-22T06:16:26;4.20;;;2.30;;
27704;SDS011;15109;50.992;6.918;2022-07-22T06:19:50;5.10;;;2.47;;
27704;SDS011;15109;50.992;6.918;2022-07-22T06:23:12;2.85;;;1.85;;
27704;SDS011;15109;50.992;6.918;2022-07-22T06:26:33;5.80;;;2.83;;
27704;SDS011;15109;50.992;6.918;2022-07-22T06:29:54;3.60;;;1.75;;
27704;SDS011;15109;50.992;6.918;2022-07-22T06:33:16;2.30;;;1.30;;
27704;SDS011;15109;50.992;6.918;2022-07-22T06:36:38;1.60;;;1.13;;
27704;SDS011;15109;50.992;6.918;2022-07-22T06:39:59;2.55;;;1.50;;
27704;SDS011;15109;50.992;6.918;2022-07-22T06:43:32;2.35;;;1.02;;
27704;SDS011;15109;50.992;6.918;2022-07-22T06:47:09;0.45;;;0.40;;
27704;SDS011;15109;50.992;6.918;2022-07-22T06:50:32;1.67;;;0.73;;
27704;SDS011;15109;50.992;6.918;2022-07-22T06:53:57;3.53;;;1.55;;
27704;SDS011;15109;50.992;6.918;2022-07-22T06:57:19;4.07;;;1.08;;
27704;SDS011;15109;50.992;6.918;2022-07-22T07:00:40;3.53;;;1.67;;
27704;SDS011;15109;50.992;6.918;2022-07-22T07:04:16;1.95;;;1.10;;
27704;SDS011;15109;50.992;6.918;2022-07-22T07:07:39;2.92;;;1.15;;
27704;SDS011;15109;50.992;6.918;2022-07-22T07:11:00;1.92;;;0.82;;
27704;SDS011;15109;50.992;6.918;2022-07-22T07:14:21;3.75;;;1.77;;
27704;SDS011;15109;50.992;6.918;2022-07-22T07:17:43;0.98;;;0.73;;
27704;SDS011;15109;50.992;6.918;2022-07-22T07:21:06;1.58;;;0.95;;
27704;SDS011;15109;50.992;6.918;2022-07-22T07:24:27;1.98;;;0.75;;
27704;SDS011;15109;50.992;6.918;2022-07-22T07:27:49;1.85;;;0.90;;
27704;SDS011;15109;50.992;6.918;2022-07-22T07:31:12;2.08;;;1.10;;
27704;SDS011;15109;50.992;6.918;2022-07-22T07:34:33;1.60;;;0.75;;
27704;SDS011;15109;50.992;6.918;2022-07-22T07:37:55;3.25;;;1.08;;
27704;SDS011;15109;50.992;6.918;2022-07-22T07:41:16;1.33;;;0.88;;
27704;SDS011;15109;50.992;6.918;2022-07-22T07:44:41;0.90;;;0.65;;
27704;SDS011;15109;50.992;6.918;2022-07-22T07:48:03;2.95;;;0.95;;
27704;SDS011;15109;50.992;6.918;2022-07-22T07:51:24;1.10;;;0.57;;
27704;SDS011;15109;50.992;6.918;2022-07-22T07:54:46;4.40;;;1.45;;
27704;SDS011;15109;50.992;6.918;2022-07-22T07:58:09;1.90;;;1.02;;
27704;SDS011;15109;50.992;6.918;2022-07-22T08:01:30;2.55;;;0.90;;
27704;SDS011;15109;50.992;6.918;2022-07-22T08:04:52;1.95;;;0.85;;
27704;SDS011;15109;50.992;6.918;2022-07-22T08:08:15;0.98;;;0.70;;
27704;SDS011;15109;50.992;6.918;2022-07-22T08:11:37;1.88;;;1.05;;
27704;SDS011;15109;50.992;6.918;2022-07-22T08:15:20;5.60;;;1.33;;
27704;SDS011;15109;50.992;6.918;2022-07-22T08:18:45;0.95;;;0.70;;
27704;SDS011;15109;50.992;6.918;2022-07-22T08:22:07;4.38;;;1.60;;
27704;SDS011;15109;50.992;6.918;2022-07-22T08:25:29;2.85;;;1.00;;
27704;SDS011;15109;50.992;6.918;2022-07-22T08:28:50;3.53;;;1.75;;
27704;SDS011;15109;50.992;6.918;2022-07-22T08:32:12;3.60;;;1.45;;
27704;SDS011;15109;50.992;6.918;2022-07-22T08:35:33;2.47;;;1.10;;
27704;SDS011;15109;50.992;6.918;2022-07-22T08:38:55;2.65;;;0.95;;
27704;SDS011;15109;50.992;6.918;2022-07-22T08:42:16;3.22;;;1.15;;
27704;SDS011;15109;50.992;6.918;2022-07-22T08:45:39;3.08;;;1.50;;
27704;SDS011;15109;50.992;6.918;2022-07-22T08:49:01;3.00;;;1.60;;
27704;SDS011;15109;50.992;6.918;2022-07-22T08:56:00;3.60;;;1.55;;
27704;SDS011;15109;50.992;6.918;2022-07-22T09:33:04;3.92;;;2.35;;
27704;SDS011;15109;50.992;6.918;2022-07-22T10:30:25;7.15;;;2.92;;
27704;SDS011;15109;50.992;6.918;2022-07-22T10:51:15;4.53;;;2.47;;
27704;SDS011;15109;50.992;6.918;2022-07-22T10:58:39;6.85;;;3.15;;
27704;SDS011;15109;50.992;6.918;2022-07-22T11:02:01;10.15;;;2.40;;
27704;SDS011;15109;50.992;6.918;2022-07-22T11:05:24;6.30;;;2.80;;
27704;SDS011;15109;50.992;6.918;2022-07-22T11:12:16;4.72;;;2.58;;
27704;SDS011;15109;50.992;6.918;2022-07-22T11:15:37;4.43;;;2.58;;
27704;SDS011;15109;50.992;6.918;2022-07-22T11:19:02;5.47;;;3.05;;
27704;SDS011;15109;50.992;6.918;2022-07-22T11:22:23;3.33;;;2.10;;
27704;SDS011;15109;50.992;6.918;2022-07-22T11:25:44;4.60;;;2.92;;
27704;SDS011;15109;50.992;6.918;2022-07-22T11:29:05;8.85;;;4.20;;
27704;SDS011;15109;50.992;6.918;2022-07-22T11:32:27;7.90;;;4.28;;
27704;SDS011;15109;50.992;6.918;2022-07-22T11:36:04;5.60;;;3.22;;
27704;SDS011;15109;50.992;6.918;2022-07-22T11:39:27;5.43;;;3.05;;
27704;SDS011;15109;50.992;6.918;2022-07-22T11:43:02;6.70;;;3.40;;
27704;SDS011;15109;50.992;6.918;2022-07-22T11:46:24;5.82;;;3.22;;
27704;SDS011;15109;50.992;6.918;2022-07-22T11:49:46;6.75;;;3.80;;
27704;SDS011;15109;50.992;6.918;2022-07-22T11:53:10;6.55;;;3.33;;
27704;SDS011;15109;50.992;6.918;2022-07-22T11:56:31;5.10;;;3.30;;
27704;SDS011;15109;50.992;6.918;2022-07-22T11:59:53;6.47;;;3.80;;
27704;SDS011;15109;50.992;6.918;2022-07-22T12:03:14;8.75;;;4.25;;
27704;SDS011;15109;50.992;6.918;2022-07-22T12:06:37;5.60;;;3.38;;
27704;SDS011;15109;50.992;6.918;2022-07-22T12:09:59;6.57;;;2.80;;
27704;SDS011;15109;50.992;6.918;2022-07-22T12:13:27;8.10;;;4.05;;
27704;SDS011;15109;50.992;6.918;2022-07-22T12:16:54;7.88;;;4.45;;
27704;SDS011;15109;50.992;6.918;2022-07-22T12:20:24;6.47;;;3.17;;
27704;SDS011;15109;50.992;6.918;2022-07-22T12:23:52;5.82;;;3.78;;
27704;SDS011;15109;50.992;6.918;2022-07-22T12:27:16;5.60;;;3.75;;
27704;SDS011;15109;50.992;6.918;2022-07-22T12:30:38;6.97;;;3.80;;
27704;SDS011;15109;50.992;6.918;2022-07-22T12:33:59;7.85;;;3.83;;
27704;SDS011;15109;50.992;6.918;2022-07-22T12:37:25;6.95;;;3.53;;
27704;SDS011;15109;50.992;6.918;2022-07-22T12:40:47;7.03;;;4.15;;
27704;SDS011;15109;50.992;6.918;2022-07-22T12:44:14;4.32;;;2.50;;
27704;SDS011;15109;50.992;6.918;2022-07-22T12:51:05;6.53;;;3.45;;
27704;SDS011;15109;50.992;6.918;2022-07-22T12:54:31;6.80;;;3.42;;
27704;SDS011;15109;50.992;6.918;2022-07-22T12:57:53;6.45;;;4.47;;
27704;SDS011;15109;50.992;6.918;2022-07-22T13:01:14;8.77;;;4.32;;
27704;SDS011;15109;50.992;6.918;2022-07-22T13:04:35;7.28;;;4.15;;
27704;SDS011;15109;50.992;6.918;2022-07-22T13:07:56;8.63;;;4.88;;
27704;SDS011;15109;50.992;6.918;2022-07-22T13:11:18;7.85;;;4.40;;
27704;SDS011;15109;50.992;6.918;2022-07-22T13:14:39;7.10;;;4.18;;
27704;SDS011;15109;50.992;6.918;2022-07-22T13:18:00;6.20;;;4.00;;
27704;SDS011;15109;50.992;6.918;2022-07-22T13:21:21;7.32;;;4.22;;
27704;SDS011;15109;50.992;6.918;2022-07-22T13:24:42;7.75;;;4.15;;
27704;SDS011;15109;50.992;6.918;2022-07-22T13:28:04;8.82;;;4.97;;
27704;SDS011;15109;50.992;6.918;2022-07-22T13:31:25;8.73;;;4.07;;
27704;SDS011;15109;50.992;6.918;2022-07-22T13:34:47;6.10;;;3.00;;
27704;SDS011;15109;50.992;6.918;2022-07-22T13:38:08;5.97;;;3.17;;
27704;SDS011;15109;50.992;6.918;2022-07-22T13:41:29;6.72;;;3.40;;
27704;SDS011;15109;50.992;6.918;2022-07-22T13:44:50;6.75;;;3.63;;
27704;SDS011;15109;50.992;6.918;2022-07-22T13:48:12;9.15;;;3.83;;
27704;SDS011;15109;50.992;6.918;2022-07-22T13:51:33;4.82;;;2.92;;
27704;SDS011;15109;50.992;6.918;2022-07-22T13:54:54;9.43;;;4.72;;
27704;SDS011;15109;50.992;6.918;2022-07-22T13:58:15;9.18;;;3.75;;
27704;SDS011;15109;50.992;6.918;2022-07-22T14:01:36;7.47;;;3.63;;
27704;SDS011;15109;50.992;6.918;2022-07-22T14:04:58;5.85;;;3.63;;
27704;SDS011;15109;50.992;6.918;2022-07-22T14:08:19;5.35;;;3.28;;
27704;SDS011;15109;50.992;6.918;2022-07-22T14:11:40;4.10;;;2.83;;
27704;SDS011;15109;50.992;6.918;2022-07-22T14:15:01;5.07;;;2.90;;
27704;SDS011;15109;50.992;6.918;2022-07-22T14:18:22;6.63;;;3.92;;
27704;SDS011;15109;50.992;6.918;2022-07-22T14:21:44;6.50;;;3.70;;
27704;SDS011;15109;50.992;6.918;2022-07-22T14:25:06;7.15;;;4.00;;
27704;SDS011;15109;50.992;6.918;2022-07-22T14:28:27;4.88;;;3.13;;
27704;SDS011;15109;50.992;6.918;2022-07-22T14:31:48;6.55;;;3.95;;
27704;SDS011;15109;50.992;6.918;2022-07-22T14:35:10;4.53;;;2.30;;
27704;SDS011;15109;50.992;6.918;2022-07-22T14:38:31;6.25;;;3.65;;
27704;SDS011;15109;50.992;6.918;2022-07-22T14:41:52;6.93;;;3.58;;
27704;SDS011;15109;50.992;6.918;2022-07-22T14:45:13;5.88;;;3.22;;
27704;SDS011;15109;50.992;6.918;2022-07-22T14:48:34;6.07;;;3.50;;
27704;SDS011;15109;50.992;6.918;2022-07-22T14:51:56;4.53;;;2.88;;
27704;SDS011;15109;50.992;6.918;2022-07-22T14:55:18;11.43;;;4.00;;
27704;SDS011;15109;50.992;6.918;2022-07-22T14:58:39;9.60;;;4.00;;
27704;SDS011;15109;50.992;6.918;2022-07-22T15:02:00;11.38;;;5.10;;
27704;SDS011;15109;50.992;6.918;2022-07-22T15:05:21;7.25;;;3.22;;
27704;SDS011;15109;50.992;6.918;2022-07-22T15:08:42;7.10;;;3.63;;
27704;SDS011;15109;50.992;6.918;2022-07-22T15:12:04;6.90;;;3.85;;
27704;SDS011;15109;50.992;6.918;2022-07-22T15:15:25;10.00;;;5.00;;
27704;SDS011;15109;50.992;6.918;2022-07-22T15:18:46;8.73;;;4.30;;
27704;SDS011;15109;50.992;6.918;2022-07-22T15:22:07;6.18;;;3.60;;
27704;SDS011;15109;50.992;6.918;2022-07-22T15:25:28;10.27;;;4.53;;
27704;SDS011;15109;50.992;6.918;2022-07-22T15:28:49;5.93;;;3.53;;
27704;SDS011;15109;50.992;6.918;2022-07-22T15:32:12;6.90;;;3.78;;
27704;SDS011;15109;50.992;6.918;2022-07-22T15:35:33;6.95;;;3.47;;
27704;SDS011;15109;50.992;6.918;2022-07-22T15:38:54;6.20;;;3.72;;
27704;SDS011;15109;50.992;6.918;2022-07-22T15:42:15;8.85;;;4.50;;
27704;SDS011;15109;50.992;6.918;2022-07-22T15:45:36;9.93;;;3.97;;
27704;SDS011;15109;50.992;6.918;2022-07-22T15:48:57;5.10;;;3.30;;
27704;SDS011;15109;50.992;6.918;2022-07-22T15:52:19;7.43;;;4.38;;
27704;SDS011;15109;50.992;6.918;2022-07-22T15:55:40;8.10;;;3.80;;
27704;SDS011;15109;50.992;6.918;2022-07-22T15:59:02;9.25;;;4.68;;
27704;SDS011;15109;50.992;6.918;2022-07-22T16:02:42;6.28;;;3.58;;
27704;SDS011;15109;50.992;6.918;2022-07-22T16:06:03;8.35;;;4.13;;
27704;SDS011;15109;50.992;6.918;2022-07-22T16:09:25;7.03;;;3.97;;
27704;SDS011;15109;50.992;6.918;2022-07-22T16:12:46;10.23;;;3.92;;
27704;SDS011;15109;50.992;6.918;2022-07-22T16:16:07;8.13;;;4.10;;
27704;SDS011;15109;50.992;6.918;2022-07-22T16:19:28;8.18;;;4.18;;
27704;SDS011;15109;50.992;6.918;2022-07-22T16:22:49;5.75;;;3.22;;
27704;SDS011;15109;50.992;6.918;2022-07-22T16:26:10;7.82;;;4.65;;
27704;SDS011;15109;50.992;6.918;2022-07-22T16:29:31;9.05;;;4.85;;
27704;SDS011;15109;50.992;6.918;2022-07-22T16:32:52;6.82;;;3.88;;
27704;SDS011;15109;50.992;6.918;2022-07-22T16:36:14;8.68;;;4.05;;
27704;SDS011;15109;50.992;6.918;2022-07-22T16:39:35;6.53;;;3.70;;
27704;SDS011;15109;50.992;6.918;2022-07-22T16:42:56;6.60;;;4.00;;
27704;SDS011;15109;50.992;6.918;2022-07-22T16:46:18;8.05;;;4.72;;
27704;SDS011;15109;50.992;6.918;2022-07-22T16:49:39;7.22;;;4.43;;
27704;SDS011;15109;50.992;6.918;2022-07-22T16:53:00;9.25;;;4.30;;
27704;SDS011;15109;50.992;6.918;2022-07-22T16:56:21;7.72;;;4.15;;
27704;SDS011;15109;50.992;6.918;2022-07-22T16:59:42;6.50;;;4.22;;
27704;SDS011;15109;50.992;6.918;2022-07-22T17:03:03;11.10;;;4.50;;
27704;SDS011;15109;50.992;6.918;2022-07-22T17:06:25;10.30;;;4.18;;
27704;SDS011;15109;50.992;6.918;2022-07-22T17:09:46;7.05;;;3.95;;
27704;SDS011;15109;50.992;6.918;2022-07-22T17:13:07;7.13;;;3.47;;
27704;SDS011;15109;50.992;6.918;2022-07-22T17:16:28;7.57;;;4.78;;
27704;SDS011;15109;50.992;6.918;2022-07-22T17:19:49;7.40;;;4.47;;
27704;SDS011;15109;50.992;6.918;2022-07-22T17:23:10;9.60;;;4.60;;
27704;SDS011;15109;50.992;6.918;2022-07-22T17:26:32;9.60;;;4.72;;
27704;SDS011;15109;50.992;6.918;2022-07-22T17:29:53;6.93;;;4.30;;
27704;SDS011;15109;50.992;6.918;2022-07-22T17:33:14;6.97;;;4.10;;
27704;SDS011;15109;50.992;6.918;2022-07-22T17:36:35;17.73;;;5.28;;
27704;SDS011;15109;50.992;6.918;2022-07-22T17:39:56;7.30;;;4.15;;
27704;SDS011;15109;50.992;6.918;2022-07-22T17:43:17;7.25;;;4.10;;
27704;SDS011;15109;50.992;6.918;2022-07-22T17:46:38;7.15;;;3.95;;
27704;SDS011;15109;50.992;6.918;2022-07-22T17:49:59;9.32;;;4.45;;
27704;SDS011;15109;50.992;6.918;2022-07-22T17:53:25;8.57;;;5.25;;
27704;SDS011;15109;50.992;6.918;2022-07-22T17:56:47;8.57;;;4.72;;
27704;SDS011;15109;50.992;6.918;2022-07-22T18:00:08;8.88;;;4.88;;
27704;SDS011;15109;50.992;6.918;2022-07-22T18:03:30;8.98;;;4.00;;
27704;SDS011;15109;50.992;6.918;2022-07-22T18:06:51;5.75;;;3.58;;
27704;SDS011;15109;50.992;6.918;2022-07-22T18:10:13;6.70;;;3.45;;
27704;SDS011;15109;50.992;6.918;2022-07-22T18:13:34;7.88;;;4.53;;
27704;SDS011;15109;50.992;6.918;2022-07-22T18:16:55;7.13;;;4.53;;
27704;SDS011;15109;50.992;6.918;2022-07-22T18:20:17;9.20;;;4.65;;
27704;SDS011;15109;50.992;6.918;2022-07-22T18:23:38;13.60;;;4.70;;
27704;SDS011;15109;50.992;6.918;2022-07-22T18:26:59;10.98;;;4.30;;
27704;SDS011;15109;50.992;6.918;2022-07-22T18:30:20;7.45;;;4.45;;
27704;SDS011;15109;50.992;6.918;2022-07-22T18:33:41;9.98;;;4.70;;
27704;SDS011;15109;50.992;6.918;2022-07-22T18:37:02;6.97;;;4.03;;
27704;SDS011;15109;50.992;6.918;2022-07-22T18:40:23;7.43;;;4.50;;
27704;SDS011;15109;50.992;6.918;2022-07-22T18:43:46;7.53;;;4.53;;
27704;SDS011;15109;50.992;6.918;2022-07-22T18:47:07;6.13;;;3.75;;
27704;SDS011;15109;50.992;6.918;2022-07-22T18:50:28;6.55;;;4.15;;
27704;SDS011;15109;50.992;6.918;2022-07-22T18:53:50;7.97;;;4.35;;
27704;SDS011;15109;50.992;6.918;2022-07-22T18:57:11;7.20;;;4.13;;
27704;SDS011;15109;50.992;6.918;2022-07-22T19:00:33;9.05;;;4.43;;
27704;SDS011;15109;50.992;6.918;2022-07-22T19:03:55;5.22;;;3.40;;
27704;SDS011;15109;50.992;6.918;2022-07-22T19:07:17;8.45;;;4.57;;
27704;SDS011;15109;50.992;6.918;2022-07-22T19:10:38;8.18;;;4.15;;
27704;SDS011;15109;50.992;6.918;2022-07-22T19:13:59;11.18;;;5.20;;
27704;SDS011;15109;50.992;6.918;2022-07-22T19:17:20;7.70;;;4.40;;
27704;SDS011;15109;50.992;6.918;2022-07-22T19:20:41;6.28;;;4.20;;
27704;SDS011;15109;50.992;6.918;2022-07-22T19:24:02;6.25;;;3.65;;
27704;SDS011;15109;50.992;6.918;2022-07-22T19:27:24;8.98;;;4.72;;
27704;SDS011;15109;50.992;6.918;2022-07-22T19:30:45;8.10;;;4.30;;
27704;SDS011;15109;50.992;6.918;2022-07-22T19:34:06;7.82;;;3.92;;
27704;SDS011;15109;50.992;6.918;2022-07-22T19:37:27;7.80;;;4.72;;
27704;SDS011;15109;50.992;6.918;2022-07-22T19:40:48;4.75;;;2.55;;
27704;SDS011;15109;50.992;6.918;2022-07-22T19:44:09;8.48;;;3.80;;
27704;SDS011;15109;50.992;6.918;2022-07-22T19:47:30;5.55;;;3.22;;
27704;SDS011;15109;50.992;6.918;2022-07-22T19:50:52;5.68;;;3.38;;
27704;SDS011;15109;50.992;6.918;2022-07-22T19:54:13;6.55;;;3.28;;
27704;SDS011;15109;50.992;6.918;2022-07-22T19:57:35;7.93;;;3.40;;
27704;SDS011;15109;50.992;6.918;2022-07-22T20:00:57;7.80;;;3.88;;
27704;SDS011;15109;50.992;6.918;2022-07-22T20:04:18;4.18;;;2.85;;
27704;SDS011;15109;50.992;6.918;2022-07-22T20:07:39;6.38;;;3.38;;
27704;SDS011;15109;50.992;6.918;2022-07-22T20:11:00;5.30;;;3.30;;
27704;SDS011;15109;50.992;6.918;2022-07-22T20:14:21;5.85;;;3.47;;
27704;SDS011;15109;50.992;6.918;2022-07-22T20:17:43;9.00;;;4.28;;
27704;SDS011;15109;50.992;6.918;2022-07-22T20:21:04;5.45;;;3.08;;
27704;SDS011;15109;50.992;6.918;2022-07-22T20:24:25;5.75;;;3.42;;
27704;SDS011;15109;50.992;6.918;2022-07-22T20:27:46;6.68;;;3.70;;
27704;SDS011;15109;50.992;6.918;2022-07-22T20:31:07;6.00;;;3.80;;
27704;SDS011;15109;50.992;6.918;2022-07-22T20:34:28;6.20;;;3.60;;
27704;SDS011;15109;50.992;6.918;2022-07-22T20:37:49;3.78;;;2.58;;
27704;SDS011;15109;50.992;6.918;2022-07-22T20:41:10;6.55;;;3.63;;
27704;SDS011;15109;50.992;6.918;2022-07-22T20:44:31;5.22;;;2.70;;
27704;SDS011;15109;50.992;6.918;2022-07-22T20:47:52;5.28;;;3.08;;
27704;SDS011;15109;50.992;6.918;2022-07-22T20:51:14;4.07;;;2.45;;
27704;SDS011;15109;50.992;6.918;2022-07-22T20:54:35;6.25;;;3.55;;
27704;SDS011;15109;50.992;6.918;2022-07-22T20:57:56;4.82;;;2.72;;
27704;SDS011;15109;50.992;6.918;2022-07-22T21:01:17;6.45;;;3.05;;
27704;SDS011;15109;50.992;6.918;2022-07-22T21:04:38;5.68;;;3.38;;
27704;SDS011;15109;50.992;6.918;2022-07-22T21:07:59;7.80;;;3.55;;
27704;SDS011;15109;50.992;6.918;2022-07-22T21:11:20;4.80;;;2.67;;
27704;SDS011;15109;50.992;6.918;2022-07-22T21:14:42;4.25;;;2.28;;
27704;SDS011;15109;50.992;6.918;2022-07-22T21:18:03;10.05;;;4.25;;
27704;SDS011;15109;50.992;6.918;2022-07-22T21:21:25;5.90;;;3.60;;
27704;SDS011;15109;50.992;6.918;2022-07-22T21:24:46;5.07;;;3.10;;
27704;SDS011;15109;50.992;6.918;2022-07-22T21:28:07;5.03;;;3.17;;
27704;SDS011;15109;50.992;6.918;2022-07-22T21:31:28;7.22;;;3.95;;
27704;SDS011;15109;50.992;6.918;2022-07-22T21:34:49;8.05;;;3.78;;
27704;SDS011;15109;50.992;6.918;2022-07-22T21:38:10;6.38;;;3.85;;
27704;SDS011;15109;50.992;6.918;2022-07-22T21:41:31;6.38;;;3.60;;
27704;SDS011;15109;50.992;6.918;2022-07-22T21:44:52;5.10;;;2.78;;
27704;SDS011;15109;50.992;6.918;2022-07-22T21:48:14;7.85;;;3.80;;
27704;SDS011;15109;50.992;6.918;2022-07-22T21:51:35;14.75;;;3.92;;
27704;SDS011;15109;50.992;6.918;2022-07-22T21:54:56;6.30;;;3.33;;
27704;SDS011;15109;50.992;6.918;2022-07-22T21:58:17;7.80;;;4.30;;
27704;SDS011;15109;50.992;6.918;2022-07-22T22:01:38;8.60;;;4.13;;
27704;SDS011;15109;50.992;6.918;2022-07-22T22:04:59;6.75;;;3.70;;
27704;SDS011;15109;50.992;6.918;2022-07-22T22:08:20;5.68;;;3.30;;
27704;SDS011;15109;50.992;6.918;2022-07-22T22:11:42;6.45;;;3.67;;
27704;SDS011;15109;50.992;6.918;2022-07-22T22:15:04;8.85;;;4.50;;
27704;SDS011;15109;50.992;6.918;2022-07-22T22:18:25;6.00;;;3.50;;
27704;SDS011;15109;50.992;6.918;2022-07-22T22:21:46;6.20;;;3.47;;